createdAt,value
2023-01-29T00:01:11.917Z,77.71
2023-01-29T00:11:14.525Z,77.62
2023-01-29T00:21:18.699Z,76.74
2023-01-29T00:31:24.276Z,77.16
2023-01-29T00:41:47.415Z,77.22
2023-01-29T00:52:09.566Z,77.10
2023-01-29T01:02:30.471Z,76.95
2023-01-29T01:12:32.862Z,76.50
2023-01-29T01:22:35.973Z,76.38
2023-01-29T01:32:39.009Z,76.59
2023-01-29T01:42:41.432Z,76.59
2023-01-29T01:52:48.955Z,76.69
2023-01-29T02:03:09.860Z,76.49
2023-01-29T02:13:12.999Z,76.63
2023-01-29T02:23:56.537Z,76.47
2023-01-29T02:34:22.534Z,76.12
2023-01-29T02:44:35.637Z,74.35
2023-01-29T08:11:04.033Z,92.78
2023-01-29T08:21:06.225Z,88.06
2023-01-29T08:31:19.590Z,84.53
2023-01-29T08:41:21.790Z,83.11
2023-01-29T08:51:25.685Z,81.81
2023-01-29T09:01:27.954Z,79.71
2023-01-29T09:11:30.211Z,79.38
2023-01-29T09:21:32.469Z,77.38
2023-01-29T09:31:34.755Z,75.58
2023-01-29T09:42:07.915Z,75.06
2023-01-29T09:52:26.638Z,73.64
2023-01-29T10:02:53.093Z,73.07
2023-01-29T10:13:27.732Z,72.16
2023-01-29T10:23:36.365Z,71.91
2023-01-29T10:34:03.004Z,70.21
2023-01-29T10:44:23.948Z,70.08
2023-01-29T10:54:48.148Z,69.02
2023-01-29T11:04:50.383Z,67.49
2023-01-29T11:14:59.646Z,68.46
2023-01-29T11:25:18.480Z,67.56
2023-01-29T11:35:24.019Z,67.11
2023-01-29T11:45:27.834Z,66.53
2023-01-29T11:55:49.387Z,67.30
2023-01-29T12:05:56.609Z,68.37
2023-01-29T12:16:18.793Z,68.95
2023-01-29T12:26:35.678Z,70.26
2023-01-29T12:36:56.982Z,68.40
2023-01-29T12:47:03.228Z,69.55
2023-01-29T12:57:14.897Z,69.44
2023-01-29T13:07:23.849Z,68.75
2023-01-29T13:17:42.971Z,69.76
2023-01-29T13:27:48.025Z,69.70
2023-01-29T13:37:53.895Z,68.96
2023-01-29T13:48:19.930Z,69.00
2023-01-29T13:58:48.048Z,69.90
2023-01-29T14:08:50.253Z,70.70
2023-01-29T14:19:02.856Z,70.97
2023-01-29T14:29:32.579Z,71.03
2023-01-29T14:39:52.467Z,71.30
2023-01-29T14:50:00.766Z,71.30
2023-01-29T15:00:06.659Z,72.56
2023-01-29T15:10:22.803Z,73.87
2023-01-29T15:20:36.972Z,74.21
2023-01-29T15:30:39.485Z,74.23
2023-01-29T15:40:42.092Z,74.14
2023-01-29T15:50:45.719Z,73.12
2023-01-29T16:00:53.139Z,74.07
2023-01-29T16:10:58.325Z,74.49
2023-01-29T16:21:06.677Z,74.43
2023-01-29T16:31:10.518Z,74.63
2023-01-29T16:41:21.555Z,74.10
2023-01-29T16:51:36.162Z,75.48
2023-01-29T17:01:38.559Z,74.89
2023-01-29T17:11:41.898Z,75.10
2023-01-29T17:21:44.131Z,73.82
2023-01-29T17:31:46.788Z,74.91
2023-01-29T17:41:56.855Z,74.90
2023-01-29T17:51:59.046Z,74.02
2023-01-29T18:02:01.358Z,74.29
2023-01-29T18:12:03.913Z,74.08
2023-01-29T18:22:06.086Z,75.72
2023-01-29T18:32:08.443Z,77.84
2023-01-29T18:42:10.666Z,78.25
2023-01-29T18:52:12.882Z,78.35
2023-01-29T19:02:17.188Z,78.05
2023-01-29T19:12:19.795Z,78.13
2023-01-29T19:22:22.022Z,77.84
2023-01-29T19:32:24.289Z,78.70
2023-01-29T19:42:27.219Z,78.09
2023-01-29T19:52:50.351Z,77.72
2023-01-29T20:02:53.512Z,76.80
2023-01-29T20:12:55.784Z,76.41
2023-01-29T20:22:58.058Z,76.97
2023-01-29T20:33:00.764Z,77.52
2023-01-29T20:43:03.050Z,77.61
2023-01-29T20:53:05.270Z,76.29
2023-01-29T21:03:07.770Z,76.49
2023-01-29T21:13:09.971Z,76.42
2023-01-29T21:23:12.248Z,76.09
2023-01-29T21:40:09.668Z,74.47
2023-01-29T21:50:12.259Z,74.92
2023-01-29T22:00:15.215Z,74.78
2023-01-29T22:10:18.939Z,75.70
2023-01-29T22:20:29.805Z,75.38
2023-01-29T22:30:32.030Z,74.20
2023-01-29T22:40:34.303Z,75.27
2023-01-29T22:50:36.492Z,75.30
2023-01-29T23:00:38.693Z,75.10
2023-01-29T23:10:40.932Z,77.19
2023-01-29T23:20:44.346Z,77.39
2023-01-29T23:30:47.988Z,76.86
2023-01-29T23:40:50.881Z,76.56
2023-01-29T23:50:53.129Z,76.08
